Time;durP1;ratioP1;P1;durP2;ratioP2;P2;SDS_P1;SDS_P2;PMS_P1;PMS_P2;Temp;Humidity;BMP_temperature;BMP_pressure;BME280_temperature;BME280_humidity;BME280_pressure;Samples;Min_cycle;Max_cycle;Signal;HPM_P1;HPM_P2
2020/12/31 00:01:28;;;;;;;8.70;4.95;;;;;;;;;;5113007;28;20026;-71
2020/12/31 00:03:54;;;;;;;8.27;5.70;;;;;;;;;;5131291;27;20440;-72
2020/12/31 00:06:20;;;;;;;8.23;5.22;;;;;;;;;;5114683;28;20024;-69
2020/12/31 00:08:46;;;;;;;9.85;5.07;;;;;;;;;;5115450;28;20486;-70
2020/12/31 00:11:12;;;;;;;8.20;5.15;;;;;;;;;;5115522;28;20107;-70
2020/12/31 00:13:39;;;;;;;8.98;5.53;;;;;;;;;;5115370;28;20023;-71
2020/12/31 00:16:05;;;;;;;9.32;5.43;;;;;;;;;;5131129;27;20068;-69
2020/12/31 00:18:31;;;;;;;9.02;5.28;;;;;;;;;;5115230;28;20027;-69
2020/12/31 00:20:57;;;;;;;8.75;5.07;;;;;;;;;;5115130;28;20100;-69
2020/12/31 00:23:24;;;;;;;8.90;5.97;;;;;;;;;;5129940;27;20056;-73
2020/12/31 00:25:53;;;;;;;8.65;5.28;;;;;;;;;;5115187;28;20103;-71
2020/12/31 00:28:20;;;;;;;9.90;5.57;;;;;;;;;;5115127;28;20020;-69
2020/12/31 00:30:47;;;;;;;11.23;6.15;;;;;;;;;;5115037;28;20015;-71
2020/12/31 00:33:14;;;;;;;8.40;5.05;;;;;;;;;;5130699;27;20015;-73
2020/12/31 00:35:40;;;;;;;9.13;5.65;;;;;;;;;;5122797;27;20093;-71
2020/12/31 00:38:06;;;;;;;9.98;5.03;;;;;;;;;;5110154;28;20028;-70
2020/12/31 00:40:33;;;;;;;9.25;5.20;;;;;;;;;;5094919;28;20024;-71
2020/12/31 00:43:00;;;;;;;9.40;5.45;;;;;;;;;;5109860;28;20078;-69
2020/12/31 00:45:26;;;;;;;9.70;5.72;;;;;;;;;;5094315;28;20356;-71
2020/12/31 00:47:52;;;;;;;8.32;4.93;;;;;;;;;;5094237;28;20020;-73
2020/12/31 00:50:18;;;;;;;11.90;4.65;;;;;;;;;;5094235;28;20020;-69
2020/12/31 00:52:44;;;;;;;8.82;5.43;;;;;;;;;;5103349;28;20028;-70
2020/12/31 00:55:10;;;;;;;8.10;5.07;;;;;;;;;;5103717;28;20066;-70
2020/12/31 00:57:36;;;;;;;7.85;5.10;;;;;;;;;;5101292;28;20020;-69
2020/12/31 01:00:04;;;;;;;8.23;5.25;;;;;;;;;;5102504;28;20016;-70
2020/12/31 01:02:31;;;;;;;7.80;5.00;;;;;;;;;;5102844;28;20026;-70
2020/12/31 01:04:57;;;;;;;11.07;6.07;;;;;;;;;;5101767;28;20024;-70
2020/12/31 01:07:23;;;;;;;9.18;5.25;;;;;;;;;;5090607;28;20024;-73
2020/12/31 01:09:49;;;;;;;9.02;5.05;;;;;;;;;;5095622;28;20450;-79
2020/12/31 01:12:15;;;;;;;9.45;4.65;;;;;;;;;;5095693;28;20051;-77
2020/12/31 01:14:41;;;;;;;8.48;5.18;;;;;;;;;;5104299;28;20506;-75
2020/12/31 01:17:07;;;;;;;8.10;5.25;;;;;;;;;;5109334;28;20035;-74
2020/12/31 01:19:33;;;;;;;7.70;4.88;;;;;;;;;;5093749;28;20020;-71
2020/12/31 01:21:59;;;;;;;11.38;4.78;;;;;;;;;;5093696;28;20525;-75
2020/12/31 01:24:25;;;;;;;17.00;5.15;;;;;;;;;;5093690;28;20024;-76
2020/12/31 01:26:51;;;;;;;9.55;5.40;;;;;;;;;;5109279;28;20060;-73
2020/12/31 01:29:17;;;;;;;8.30;5.30;;;;;;;;;;5093762;28;20089;-72
2020/12/31 01:31:47;;;;;;;12.48;5.55;;;;;;;;;;5093551;28;20086;-72
2020/12/31 01:34:13;;;;;;;19.35;6.93;;;;;;;;;;5093515;28;20058;-73
2020/12/31 01:36:39;;;;;;;10.00;5.13;;;;;;;;;;5093728;28;20370;-72
2020/12/31 01:39:05;;;;;;;9.30;5.13;;;;;;;;;;5109480;28;20324;-73
2020/12/31 01:41:31;;;;;;;8.25;5.10;;;;;;;;;;5109339;28;20024;-72
2020/12/31 01:44:08;;;;;;;9.88;5.93;;;;;;;;;;5093461;28;20025;-72
2020/12/31 01:46:35;;;;;;;12.38;6.28;;;;;;;;;;5093410;28;20046;-72
2020/12/31 01:49:02;;;;;;;10.98;7.00;;;;;;;;;;5106764;28;20028;-72
2020/12/31 01:51:29;;;;;;;9.15;6.40;;;;;;;;;;5095422;28;20046;-72
2020/12/31 01:53:56;;;;;;;9.38;6.15;;;;;;;;;;5112967;28;20059;-72
2020/12/31 01:56:29;;;;;;;11.73;6.43;;;;;;;;;;5094136;28;20027;-72
2020/12/31 01:58:55;;;;;;;11.50;6.00;;;;;;;;;;5112392;28;20023;-72
2020/12/31 02:01:22;;;;;;;13.38;7.25;;;;;;;;;;5093940;28;20031;-72
2020/12/31 02:03:51;;;;;;;9.30;6.53;;;;;;;;;;5109074;28;20043;-72
2020/12/31 02:06:18;;;;;;;12.27;7.57;;;;;;;;;;5113210;28;20035;-72
2020/12/31 02:08:45;;;;;;;10.63;7.00;;;;;;;;;;5113290;28;20038;-72
2020/12/31 02:11:13;;;;;;;12.32;7.55;;;;;;;;;;5113516;28;20604;-72
2020/12/31 02:13:39;;;;;;;11.77;7.57;;;;;;;;;;5095159;28;20497;-72
2020/12/31 02:16:05;;;;;;;15.52;10.63;;;;;;;;;;5113308;28;20051;-72
2020/12/31 02:18:31;;;;;;;14.38;10.20;;;;;;;;;;5113269;28;20056;-72
2020/12/31 02:20:58;;;;;;;18.42;8.98;;;;;;;;;;5113203;28;20024;-72
2020/12/31 02:23:24;;;;;;;15.13;7.20;;;;;;;;;;5094565;28;20498;-73
2020/12/31 02:25:51;;;;;;;18.80;7.15;;;;;;;;;;5113029;28;20023;-72
2020/12/31 02:28:17;;;;;;;22.00;7.95;;;;;;;;;;5112877;28;20036;-72
2020/12/31 02:30:43;;;;;;;14.90;6.63;;;;;;;;;;5112619;28;20023;-72
2020/12/31 02:33:09;;;;;;;12.18;6.95;;;;;;;;;;5112733;28;20019;-72
2020/12/31 02:35:35;;;;;;;15.23;7.22;;;;;;;;;;5094416;28;20473;-72
2020/12/31 02:38:01;;;;;;;16.15;7.82;;;;;;;;;;5112614;28;20019;-72
2020/12/31 02:40:27;;;;;;;15.73;7.13;;;;;;;;;;5112474;28;20027;-72
2020/12/31 02:42:53;;;;;;;10.45;6.72;;;;;;;;;;5094185;28;20034;-72
2020/12/31 02:45:19;;;;;;;13.20;7.32;;;;;;;;;;5094450;28;20016;-72
2020/12/31 02:47:45;;;;;;;13.60;6.95;;;;;;;;;;5112399;28;20110;-72
2020/12/31 02:50:11;;;;;;;12.13;7.20;;;;;;;;;;5112591;28;20024;-72
2020/12/31 02:52:37;;;;;;;10.82;6.90;;;;;;;;;;5112639;28;20096;-72
2020/12/31 02:55:03;;;;;;;14.52;7.63;;;;;;;;;;5112265;28;20439;-72
2020/12/31 02:57:30;;;;;;;11.88;7.88;;;;;;;;;;5112331;28;20028;-72
2020/12/31 02:59:56;;;;;;;12.35;7.68;;;;;;;;;;5112395;28;20050;-72
2020/12/31 03:02:22;;;;;;;14.15;8.23;;;;;;;;;;5112304;28;20023;-72
2020/12/31 03:04:48;;;;;;;14.65;8.07;;;;;;;;;;5112489;28;20027;-72
2020/12/31 03:07:14;;;;;;;15.95;8.45;;;;;;;;;;5112192;28;20016;-72
2020/12/31 03:09:40;;;;;;;16.20;9.30;;;;;;;;;;5112165;28;20028;-72
2020/12/31 03:12:06;;;;;;;12.73;7.85;;;;;;;;;;5112107;28;20053;-72
2020/12/31 03:14:32;;;;;;;12.00;8.57;;;;;;;;;;5093744;28;20348;-72
2020/12/31 03:16:58;;;;;;;12.95;7.55;;;;;;;;;;5112280;28;20378;-72
2020/12/31 03:19:24;;;;;;;13.27;7.78;;;;;;;;;;5093787;28;20027;-72
2020/12/31 03:21:50;;;;;;;11.90;8.02;;;;;;;;;;5112079;28;20026;-72
2020/12/31 03:24:16;;;;;;;14.30;7.82;;;;;;;;;;5112152;28;20027;-72
2020/12/31 03:26:42;;;;;;;11.50;7.50;;;;;;;;;;5112158;28;20024;-72
2020/12/31 03:29:08;;;;;;;11.68;7.35;;;;;;;;;;5111878;28;20019;-72
2020/12/31 03:31:34;;;;;;;11.57;7.07;;;;;;;;;;5111639;28;20015;-72
2020/12/31 03:34:00;;;;;;;13.18;7.63;;;;;;;;;;5093339;28;20043;-72
2020/12/31 03:36:27;;;;;;;11.75;8.02;;;;;;;;;;5111319;28;20470;-72
2020/12/31 03:38:57;;;;;;;13.13;7.93;;;;;;;;;;5093528;28;20462;-72
2020/12/31 03:41:23;;;;;;;13.00;7.50;;;;;;;;;;5112013;28;20052;-72
2020/12/31 03:43:49;;;;;;;10.77;6.63;;;;;;;;;;5111573;28;20028;-72
2020/12/31 03:46:15;;;;;;;9.93;6.18;;;;;;;;;;5111508;28;20099;-72
2020/12/31 03:48:41;;;;;;;9.70;6.68;;;;;;;;;;5111790;28;20035;-72
2020/12/31 03:51:07;;;;;;;12.32;6.25;;;;;;;;;;5111502;28;20019;-72
2020/12/31 03:53:33;;;;;;;9.50;6.07;;;;;;;;;;5093341;28;20030;-72
2020/12/31 03:55:59;;;;;;;9.98;7.07;;;;;;;;;;5111556;28;20031;-72
2020/12/31 03:58:25;;;;;;;8.93;5.93;;;;;;;;;;5111984;28;20028;-72
2020/12/31 04:00:51;;;;;;;10.73;5.85;;;;;;;;;;5093407;28;20016;-72
2020/12/31 04:03:17;;;;;;;8.98;5.53;;;;;;;;;;5111601;28;20109;-72
2020/12/31 04:05:43;;;;;;;8.57;6.13;;;;;;;;;;5093479;28;20046;-72
2020/12/31 04:08:09;;;;;;;9.00;5.82;;;;;;;;;;5093399;28;20110;-72
2020/12/31 04:10:35;;;;;;;11.05;6.28;;;;;;;;;;5111538;28;20012;-72
2020/12/31 04:13:01;;;;;;;9.35;5.75;;;;;;;;;;5111718;28;20019;-72
2020/12/31 04:15:27;;;;;;;8.40;5.55;;;;;;;;;;5111698;28;20015;-72
2020/12/31 04:17:53;;;;;;;9.63;5.82;;;;;;;;;;5093334;28;20364;-72
2020/12/31 04:20:19;;;;;;;9.23;5.38;;;;;;;;;;5093359;28;20019;-71
2020/12/31 04:22:46;;;;;;;8.65;5.22;;;;;;;;;;5093159;28;20474;-72
2020/12/31 04:25:12;;;;;;;8.45;5.60;;;;;;;;;;5111614;28;20494;-72
2020/12/31 04:27:38;;;;;;;8.63;5.40;;;;;;;;;;5093187;28;20023;-72
2020/12/31 04:30:04;;;;;;;6.75;4.65;;;;;;;;;;5111701;28;20028;-72
2020/12/31 04:32:30;;;;;;;9.25;5.47;;;;;;;;;;5111511;28;20050;-72
2020/12/31 04:34:56;;;;;;;7.88;5.50;;;;;;;;;;5111201;28;20048;-73
2020/12/31 04:37:22;;;;;;;10.10;5.70;;;;;;;;;;5111551;28;20111;-72
2020/12/31 04:39:48;;;;;;;8.32;5.90;;;;;;;;;;5111465;28;20028;-72
2020/12/31 04:42:14;;;;;;;8.23;5.85;;;;;;;;;;5111321;28;20035;-72
2020/12/31 04:44:41;;;;;;;7.95;5.43;;;;;;;;;;5111485;28;20081;-72
2020/12/31 04:47:17;;;;;;;10.77;6.45;;;;;;;;;;5111276;28;20027;-72
2020/12/31 04:49:44;;;;;;;8.43;5.95;;;;;;;;;;5114686;28;20016;-72
2020/12/31 04:52:11;;;;;;;9.55;6.68;;;;;;;;;;5114756;28;20731;-72
2020/12/31 04:54:40;;;;;;;10.43;6.85;;;;;;;;;;5114779;28;20024;-72
2020/12/31 04:57:07;;;;;;;9.68;6.72;;;;;;;;;;5114652;28;20370;-72
2020/12/31 04:59:33;;;;;;;10.80;7.75;;;;;;;;;;5114619;28;20026;-73
2020/12/31 05:01:59;;;;;;;10.70;6.75;;;;;;;;;;5114744;28;20034;-72
2020/12/31 05:04:26;;;;;;;11.38;6.88;;;;;;;;;;5114722;28;20027;-72
2020/12/31 05:06:58;;;;;;;10.70;6.70;;;;;;;;;;5114695;28;20020;-72
2020/12/31 05:09:24;;;;;;;10.50;6.90;;;;;;;;;;5114749;28;20027;-72
2020/12/31 05:11:54;;;;;;;12.00;6.47;;;;;;;;;;5114557;28;20377;-72
2020/12/31 05:14:29;;;;;;;10.90;6.88;;;;;;;;;;5114550;28;20028;-72
2020/12/31 05:16:55;;;;;;;9.95;6.68;;;;;;;;;;5106341;28;20154;-72
2020/12/31 05:19:25;;;;;;;16.30;7.38;;;;;;;;;;5114424;28;20008;-72
2020/12/31 05:22:11;;;;;;;10.95;7.18;;;;;;;;;;5114537;28;20090;-72
2020/12/31 05:24:37;;;;;;;11.02;6.53;;;;;;;;;;5114321;28;20030;-72
2020/12/31 05:27:39;;;;;;;9.63;5.80;;;;;;;;;;5114134;28;20019;-72
2020/12/31 05:30:06;;;;;;;9.38;6.28;;;;;;;;;;5024545;28;20088;-72
2020/12/31 05:32:33;;;;;;;10.18;6.18;;;;;;;;;;5090964;28;20506;-72
2020/12/31 05:35:00;;;;;;;10.07;6.00;;;;;;;;;;5113793;28;20651;-72
2020/12/31 05:37:27;;;;;;;9.30;5.72;;;;;;;;;;5113789;28;20098;-72
2020/12/31 05:39:56;;;;;;;13.25;5.80;;;;;;;;;;5095758;28;20522;-72
2020/12/31 05:42:23;;;;;;;8.85;5.38;;;;;;;;;;5113881;28;20038;-72
2020/12/31 05:45:08;;;;;;;8.85;5.55;;;;;;;;;;5113933;28;20031;-72
2020/12/31 05:47:35;;;;;;;9.15;5.72;;;;;;;;;;5113851;28;20095;-72
2020/12/31 05:50:01;;;;;;;10.93;6.40;;;;;;;;;;5113727;28;20028;-72
2020/12/31 05:52:33;;;;;;;9.63;5.43;;;;;;;;;;5095373;28;20019;-72
2020/12/31 05:55:01;;;;;;;7.93;5.13;;;;;;;;;;5105609;28;20513;-72
2020/12/31 05:57:40;;;;;;;12.27;6.05;;;;;;;;;;5112981;28;20117;-73
2020/12/31 06:00:07;;;;;;;8.65;5.47;;;;;;;;;;5091051;28;20494;-73
2020/12/31 06:02:41;;;;;;;9.20;5.57;;;;;;;;;;5110175;28;20471;-73
2020/12/31 06:05:14;;;;;;;8.40;5.32;;;;;;;;;;5112767;28;20034;-72
2020/12/31 06:07:44;;;;;;;8.30;5.40;;;;;;;;;;5091783;28;20027;-73
2020/12/31 06:10:12;;;;;;;8.98;5.38;;;;;;;;;;5094120;28;20024;-72
2020/12/31 06:12:56;;;;;;;7.65;5.07;;;;;;;;;;5112555;28;20012;-72
2020/12/31 06:15:45;;;;;;;9.00;5.72;;;;;;;;;;5112706;28;20023;-73
2020/12/31 06:18:16;;;;;;;7.88;5.07;;;;;;;;;;5106659;28;20094;-72
2020/12/31 06:20:46;;;;;;;8.60;5.15;;;;;;;;;;5112251;28;20096;-72
2020/12/31 06:23:13;;;;;;;11.32;5.20;;;;;;;;;;5112327;28;20035;-72
2020/12/31 06:25:46;;;;;;;8.07;5.05;;;;;;;;;;5094562;28;20020;-72
2020/12/31 06:28:12;;;;;;;10.95;5.35;;;;;;;;;;5094444;28;20501;-72
2020/12/31 06:30:40;;;;;;;9.50;5.43;;;;;;;;;;5094613;28;20057;-72
2020/12/31 06:33:13;;;;;;;8.40;5.35;;;;;;;;;;5112905;28;20028;-72
2020/12/31 06:35:42;;;;;;;8.45;5.20;;;;;;;;;;5112958;28;20095;-72
2020/12/31 06:38:09;;;;;;;8.85;5.43;;;;;;;;;;5112784;28;20031;-72
2020/12/31 06:40:36;;;;;;;10.60;4.95;;;;;;;;;;5112506;28;20015;-72
2020/12/31 06:43:13;;;;;;;9.13;5.30;;;;;;;;;;5112519;28;20478;-72
2020/12/31 06:45:46;;;;;;;8.68;5.35;;;;;;;;;;5112561;28;20020;-72
2020/12/31 06:48:42;;;;;;;7.93;5.18;;;;;;;;;;5112597;28;20050;-72
2020/12/31 06:51:11;;;;;;;10.75;5.25;;;;;;;;;;5088873;28;20038;-72
2020/12/31 06:53:37;;;;;;;8.13;5.45;;;;;;;;;;5112475;28;20026;-72
2020/12/31 06:56:04;;;;;;;8.95;5.45;;;;;;;;;;5094203;28;20024;-72
2020/12/31 06:58:31;;;;;;;9.70;5.97;;;;;;;;;;5112537;28;20020;-72
2020/12/31 07:00:57;;;;;;;11.07;6.85;;;;;;;;;;5112333;28;20110;-72
2020/12/31 07:03:41;;;;;;;8.73;5.65;;;;;;;;;;5112255;28;20027;-72
2020/12/31 07:06:23;;;;;;;9.73;5.88;;;;;;;;;;5105729;28;20030;-72
2020/12/31 07:08:58;;;;;;;9.20;5.03;;;;;;;;;;5112482;28;20415;-72
2020/12/31 07:11:35;;;;;;;6.82;4.03;;;;;;;;;;5111646;28;20012;-72
2020/12/31 07:14:03;;;;;;;7.88;4.80;;;;;;;;;;5105086;28;20709;-72
2020/12/31 07:16:39;;;;;;;8.40;4.10;;;;;;;;;;5112220;28;20068;-72
2020/12/31 07:19:05;;;;;;;6.57;4.10;;;;;;;;;;5112114;28;20051;-72
2020/12/31 07:21:31;;;;;;;8.10;4.68;;;;;;;;;;5112124;28;20028;-72
2020/12/31 07:23:58;;;;;;;6.60;4.32;;;;;;;;;;5093800;28;20034;-72
2020/12/31 07:26:26;;;;;;;8.38;4.28;;;;;;;;;;5093789;28;20020;-72
2020/12/31 07:28:53;;;;;;;6.78;4.15;;;;;;;;;;5111934;28;20736;-73
2020/12/31 07:31:37;;;;;;;7.53;4.30;;;;;;;;;;5108638;28;20022;-72
2020/12/31 07:34:33;;;;;;;6.93;4.10;;;;;;;;;;5091575;28;20054;-73
2020/12/31 07:37:00;;;;;;;7.70;4.75;;;;;;;;;;5071154;28;20676;-72
2020/12/31 07:39:26;;;;;;;6.32;3.80;;;;;;;;;;5092723;28;20481;-72
2020/12/31 07:42:07;;;;;;;6.00;3.95;;;;;;;;;;5093553;28;20016;-72
2020/12/31 07:44:34;;;;;;;6.53;4.28;;;;;;;;;;5093717;28;20016;-72
2020/12/31 07:47:01;;;;;;;6.75;3.83;;;;;;;;;;5093561;28;20059;-71
2020/12/31 07:49:27;;;;;;;6.70;4.15;;;;;;;;;;5111653;28;20016;-72
2020/12/31 07:51:53;;;;;;;5.65;3.65;;;;;;;;;;5111536;28;20041;-72
2020/12/31 07:54:20;;;;;;;6.53;4.07;;;;;;;;;;5111710;28;20387;-72
2020/12/31 07:56:48;;;;;;;6.45;3.83;;;;;;;;;;5093335;28;20031;-72
2020/12/31 07:59:14;;;;;;;7.70;4.13;;;;;;;;;;5110889;28;20023;-72
2020/12/31 08:01:40;;;;;;;7.65;4.07;;;;;;;;;;5111760;28;20066;-73
2020/12/31 08:04:12;;;;;;;9.68;3.80;;;;;;;;;;5111789;28;20035;-72
2020/12/31 08:06:38;;;;;;;7.77;3.80;;;;;;;;;;5110779;28;20024;-72
2020/12/31 08:09:04;;;;;;;7.80;3.92;;;;;;;;;;5111630;28;20107;-72
2020/12/31 08:11:30;;;;;;;7.40;4.22;;;;;;;;;;5111702;28;20052;-72
2020/12/31 08:14:05;;;;;;;10.60;4.28;;;;;;;;;;5111613;28;20420;-72
2020/12/31 08:16:31;;;;;;;8.25;3.88;;;;;;;;;;5111706;28;20534;-72
2020/12/31 08:18:58;;;;;;;6.95;4.05;;;;;;;;;;5093408;28;20509;-72
2020/12/31 08:21:24;;;;;;;17.27;4.40;;;;;;;;;;5111662;28;20356;-72
2020/12/31 08:24:06;;;;;;;12.95;4.22;;;;;;;;;;5092799;28;20536;-71
2020/12/31 08:26:32;;;;;;;20.30;4.10;;;;;;;;;;5102376;28;20019;-73
2020/12/31 08:28:59;;;;;;;8.15;4.55;;;;;;;;;;5130747;27;20030;-72
2020/12/31 08:31:25;;;;;;;8.88;4.80;;;;;;;;;;5105467;28;20017;-71
2020/12/31 08:33:59;;;;;;;7.55;4.90;;;;;;;;;;5110999;28;20032;-71
2020/12/31 08:36:26;;;;;;;11.48;5.80;;;;;;;;;;5080252;28;20418;-71
2020/12/31 08:38:54;;;;;;;7.55;4.25;;;;;;;;;;5075445;28;20024;-70
2020/12/31 08:41:20;;;;;;;9.77;5.20;;;;;;;;;;5108356;28;20016;-70
2020/12/31 08:43:46;;;;;;;7.95;4.82;;;;;;;;;;5074523;28;20028;-70
2020/12/31 08:46:19;;;;;;;7.45;4.38;;;;;;;;;;5074013;28;20031;-72
2020/12/31 08:48:52;;;;;;;7.28;4.43;;;;;;;;;;5072824;28;20028;-73
2020/12/31 08:51:18;;;;;;;8.10;4.78;;;;;;;;;;5073791;28;20050;-74
2020/12/31 08:53:48;;;;;;;8.88;4.40;;;;;;;;;;5074010;28;20020;-71
2020/12/31 08:56:15;;;;;;;7.47;4.35;;;;;;;;;;5072470;28;20115;-72
2020/12/31 08:58:41;;;;;;;6.60;4.32;;;;;;;;;;5073842;28;20031;-72
2020/12/31 09:01:07;;;;;;;7.00;4.35;;;;;;;;;;5076478;28;20016;-71
2020/12/31 09:03:33;;;;;;;6.68;3.95;;;;;;;;;;5092640;28;20124;-72
2020/12/31 09:06:00;;;;;;;9.02;4.25;;;;;;;;;;5094111;28;20023;-71
2020/12/31 09:08:27;;;;;;;7.15;3.70;;;;;;;;;;5097685;28;20107;-71
2020/12/31 09:11:06;;;;;;;7.93;3.38;;;;;;;;;;5098601;28;20062;-71
2020/12/31 09:13:36;;;;;;;11.77;3.40;;;;;;;;;;5092150;28;20020;-71
2020/12/31 09:16:12;;;;;;;5.90;3.50;;;;;;;;;;5093539;28;20074;-71
2020/12/31 09:18:39;;;;;;;9.32;4.20;;;;;;;;;;5101012;28;20044;-71
2020/12/31 09:21:05;;;;;;;10.23;4.05;;;;;;;;;;5091251;28;20026;-71
2020/12/31 09:23:31;;;;;;;12.45;4.15;;;;;;;;;;5093578;28;20036;-72
2020/12/31 09:25:57;;;;;;;14.60;4.28;;;;;;;;;;5092487;28;20027;-72
2020/12/31 09:28:25;;;;;;;68.15;17.95;;;;;;;;;;5074188;28;20028;-73
2020/12/31 09:30:51;;;;;;;42.20;12.32;;;;;;;;;;5075292;28;20115;-71
2020/12/31 09:33:18;;;;;;;35.25;10.85;;;;;;;;;;5075130;28;20111;-71
2020/12/31 09:35:45;;;;;;;25.95;8.93;;;;;;;;;;5093321;28;20511;-72
2020/12/31 09:38:12;;;;;;;34.03;8.52;;;;;;;;;;5093674;28;20034;-71
2020/12/31 09:40:38;;;;;;;33.05;9.00;;;;;;;;;;5093284;28;20485;-72
2020/12/31 09:43:05;;;;;;;28.15;8.38;;;;;;;;;;5092727;28;20035;-72
2020/12/31 09:45:31;;;;;;;24.02;7.60;;;;;;;;;;5093050;28;20031;-73
2020/12/31 09:47:58;;;;;;;31.55;8.05;;;;;;;;;;5090292;28;20020;-72
2020/12/31 09:50:24;;;;;;;28.55;7.43;;;;;;;;;;5073887;28;20375;-73
2020/12/31 09:52:50;;;;;;;24.60;7.50;;;;;;;;;;5092726;28;20020;-73
2020/12/31 09:55:16;;;;;;;30.08;7.22;;;;;;;;;;5092519;28;20016;-72
2020/12/31 09:57:42;;;;;;;19.42;6.28;;;;;;;;;;5074387;28;20122;-72
2020/12/31 10:00:09;;;;;;;27.33;7.38;;;;;;;;;;5092748;28;20012;-72
2020/12/31 10:02:35;;;;;;;18.23;6.25;;;;;;;;;;5092954;28;20162;-72
2020/12/31 10:05:01;;;;;;;19.20;6.13;;;;;;;;;;5087151;28;20098;-71
2020/12/31 10:07:27;;;;;;;17.90;6.72;;;;;;;;;;5070977;28;20395;-76
2020/12/31 10:09:53;;;;;;;20.13;6.05;;;;;;;;;;5072590;28;20024;-74
2020/12/31 10:12:19;;;;;;;16.27;6.22;;;;;;;;;;5088010;28;20078;-73
2020/12/31 10:14:46;;;;;;;15.45;6.03;;;;;;;;;;5074482;28;20613;-73
2020/12/31 10:17:12;;;;;;;21.55;5.93;;;;;;;;;;5092759;28;20024;-73
2020/12/31 10:19:38;;;;;;;16.30;6.13;;;;;;;;;;5092509;28;20039;-70
2020/12/31 10:22:04;;;;;;;13.32;5.15;;;;;;;;;;5091731;28;20024;-72
2020/12/31 10:24:30;;;;;;;18.38;5.55;;;;;;;;;;5076598;28;20028;-73
2020/12/31 10:26:56;;;;;;;11.52;5.03;;;;;;;;;;5071943;28;20119;-74
2020/12/31 10:29:23;;;;;;;13.73;5.05;;;;;;;;;;5071918;28;20487;-71
2020/12/31 10:31:52;;;;;;;11.65;5.93;;;;;;;;;;5054030;28;20082;-69
2020/12/31 10:34:19;;;;;;;12.30;5.57;;;;;;;;;;5071840;28;20073;-70
2020/12/31 10:36:55;;;;;;;14.18;5.45;;;;;;;;;;5053838;28;20383;-71
2020/12/31 10:39:22;;;;;;;13.02;6.35;;;;;;;;;;5092055;28;20031;-71
2020/12/31 10:41:48;;;;;;;15.30;5.88;;;;;;;;;;5089055;28;20395;-74
2020/12/31 10:44:14;;;;;;;16.15;5.63;;;;;;;;;;5071969;28;20036;-71
2020/12/31 10:46:40;;;;;;;10.30;5.22;;;;;;;;;;5053000;28;20016;-71
2020/12/31 10:49:06;;;;;;;14.48;5.47;;;;;;;;;;5071980;28;20099;-72
2020/12/31 10:51:34;;;;;;;11.43;5.30;;;;;;;;;;5071650;28;20062;-71
2020/12/31 10:54:00;;;;;;;14.25;5.28;;;;;;;;;;5071561;28;20025;-70
2020/12/31 10:56:26;;;;;;;14.93;4.82;;;;;;;;;;5085879;28;20020;-71
2020/12/31 10:58:52;;;;;;;21.23;6.55;;;;;;;;;;5072481;28;20123;-72
2020/12/31 11:01:18;;;;;;;12.45;6.15;;;;;;;;;;5087672;28;20028;-75
2020/12/31 11:03:45;;;;;;;11.98;6.03;;;;;;;;;;5079448;28;20031;-84
2020/12/31 11:06:18;;;;;;;11.77;7.05;;;;;;;;;;5091757;28;20065;-75
2020/12/31 11:08:44;;;;;;;13.52;6.38;;;;;;;;;;5077449;28;20020;-75
2020/12/31 11:11:15;;;;;;;16.27;7.43;;;;;;;;;;5071482;28;20016;-75
2020/12/31 11:13:41;;;;;;;20.00;6.85;;;;;;;;;;5072117;28;20027;-74
2020/12/31 11:16:08;;;;;;;19.20;7.00;;;;;;;;;;5069982;28;20024;-74
2020/12/31 11:18:34;;;;;;;27.40;7.07;;;;;;;;;;5083444;28;20027;-72
2020/12/31 11:21:00;;;;;;;24.73;6.97;;;;;;;;;;5076031;28;20104;-73
2020/12/31 11:23:26;;;;;;;22.08;7.22;;;;;;;;;;5069771;28;20036;-75
2020/12/31 11:25:52;;;;;;;13.68;6.32;;;;;;;;;;5070115;28;20043;-73
2020/12/31 11:28:18;;;;;;;23.83;8.05;;;;;;;;;;5071233;28;20081;-73
2020/12/31 11:30:44;;;;;;;20.10;8.05;;;;;;;;;;5073092;28;20047;-72
2020/12/31 11:33:10;;;;;;;15.93;7.45;;;;;;;;;;5090085;28;20031;-72
2020/12/31 11:35:36;;;;;;;15.25;6.30;;;;;;;;;;5109431;28;20044;-72
2020/12/31 11:38:02;;;;;;;14.45;7.15;;;;;;;;;;5111722;28;20088;-72
2020/12/31 11:40:28;;;;;;;17.40;6.57;;;;;;;;;;5111633;28;20028;-72
2020/12/31 11:42:54;;;;;;;16.83;6.82;;;;;;;;;;5127109;28;20030;-72
2020/12/31 11:45:21;;;;;;;24.67;6.28;;;;;;;;;;5110918;28;20020;-72
2020/12/31 11:47:47;;;;;;;17.42;6.30;;;;;;;;;;5126694;28;20108;-72
2020/12/31 11:50:13;;;;;;;11.75;6.57;;;;;;;;;;5111718;28;20024;-73
2020/12/31 11:52:39;;;;;;;12.48;6.20;;;;;;;;;;5111754;28;20030;-72
2020/12/31 11:55:06;;;;;;;10.95;6.15;;;;;;;;;;5111785;28;20446;-73
2020/12/31 11:57:32;;;;;;;13.23;6.07;;;;;;;;;;5091448;28;20183;-72
2020/12/31 11:59:58;;;;;;;12.73;5.47;;;;;;;;;;5151136;27;20122;-72
2020/12/31 12:02:24;;;;;;;8.85;5.03;;;;;;;;;;5135966;27;20063;-72
2020/12/31 12:04:50;;;;;;;12.15;5.85;;;;;;;;;;5107528;28;20016;-72
2020/12/31 12:07:16;;;;;;;13.27;5.03;;;;;;;;;;5095260;28;20063;-73
2020/12/31 12:09:43;;;;;;;11.32;4.80;;;;;;;;;;5110858;28;20027;-72
2020/12/31 12:12:09;;;;;;;10.15;5.20;;;;;;;;;;5110798;28;20024;-72
2020/12/31 12:14:35;;;;;;;9.40;3.80;;;;;;;;;;5095132;28;20069;-72
2020/12/31 12:17:01;;;;;;;10.73;5.05;;;;;;;;;;5094850;28;20036;-72
2020/12/31 12:19:28;;;;;;;10.05;4.53;;;;;;;;;;5110709;28;20031;-73
2020/12/31 12:21:58;;;;;;;9.45;4.43;;;;;;;;;;5095406;28;20050;-73
2020/12/31 12:24:24;;;;;;;8.55;4.28;;;;;;;;;;5110327;28;20483;-72
2020/12/31 12:26:50;;;;;;;11.57;4.60;;;;;;;;;;5109364;28;20423;-73
2020/12/31 12:29:16;;;;;;;10.43;4.63;;;;;;;;;;5136433;27;20028;-73
2020/12/31 12:31:42;;;;;;;12.02;4.38;;;;;;;;;;5143320;27;20106;-73
2020/12/31 12:34:08;;;;;;;10.98;4.18;;;;;;;;;;5105282;27;20048;-70
2020/12/31 12:36:35;;;;;;;13.90;4.88;;;;;;;;;;5110935;27;20062;-69
2020/12/31 12:39:01;;;;;;;13.60;6.10;;;;;;;;;;5105658;28;20687;-71
2020/12/31 12:41:27;;;;;;;12.52;5.95;;;;;;;;;;5108018;27;20023;-69
2020/12/31 12:43:53;;;;;;;21.25;6.28;;;;;;;;;;5089758;28;20162;-69
2020/12/31 12:46:20;;;;;;;13.30;5.60;;;;;;;;;;5113328;27;20023;-73
2020/12/31 12:48:46;;;;;;;14.88;5.78;;;;;;;;;;5114083;28;20022;-79
2020/12/31 12:51:12;;;;;;;14.35;5.80;;;;;;;;;;5087994;28;20024;-70
2020/12/31 12:53:39;;;;;;;15.00;5.60;;;;;;;;;;5122479;27;20027;-72
2020/12/31 12:56:06;;;;;;;14.77;5.50;;;;;;;;;;5110972;27;20414;-75
2020/12/31 12:58:32;;;;;;;11.80;5.65;;;;;;;;;;5125040;27;20069;-75
2020/12/31 13:00:58;;;;;;;9.25;5.40;;;;;;;;;;5130251;27;20046;-76
2020/12/31 13:03:24;;;;;;;9.88;5.18;;;;;;;;;;5097439;28;20047;-76
2020/12/31 13:05:51;;;;;;;9.63;4.63;;;;;;;;;;5109651;28;20020;-76
2020/12/31 13:08:17;;;;;;;11.45;5.00;;;;;;;;;;5093349;28;20028;-76
2020/12/31 13:10:44;;;;;;;10.05;5.40;;;;;;;;;;5094937;27;20024;-75
2020/12/31 13:13:10;;;;;;;19.65;5.30;;;;;;;;;;5105615;27;20034;-68
2020/12/31 13:15:38;;;;;;;17.50;5.18;;;;;;;;;;5108905;27;20042;-72
2020/12/31 13:18:04;;;;;;;13.90;4.82;;;;;;;;;;5112951;28;20020;-72
2020/12/31 13:20:31;;;;;;;13.00;5.10;;;;;;;;;;5096482;28;20035;-72
2020/12/31 13:22:57;;;;;;;12.48;4.97;;;;;;;;;;5096013;28;20036;-72
2020/12/31 13:25:23;;;;;;;16.33;4.97;;;;;;;;;;5096025;28;20052;-72
2020/12/31 13:27:49;;;;;;;12.40;5.13;;;;;;;;;;5114359;28;20020;-72
2020/12/31 13:30:16;;;;;;;9.38;4.90;;;;;;;;;;5114114;28;20547;-72
2020/12/31 13:32:42;;;;;;;9.90;5.30;;;;;;;;;;5114027;28;20023;-72
2020/12/31 13:35:09;;;;;;;17.83;4.70;;;;;;;;;;5113913;28;20172;-72
2020/12/31 13:37:35;;;;;;;12.07;5.57;;;;;;;;;;5114102;28;20077;-72
2020/12/31 13:40:01;;;;;;;12.65;6.03;;;;;;;;;;5114048;28;20034;-72
2020/12/31 13:42:27;;;;;;;11.27;4.70;;;;;;;;;;5113862;28;20020;-72
2020/12/31 13:44:53;;;;;;;13.48;5.82;;;;;;;;;;5081937;28;20042;-71
2020/12/31 13:47:19;;;;;;;25.10;6.22;;;;;;;;;;5113331;27;20027;-70
2020/12/31 13:49:45;;;;;;;14.85;5.45;;;;;;;;;;5107434;28;20020;-70
2020/12/31 13:52:11;;;;;;;16.38;6.43;;;;;;;;;;5090806;28;20026;-71
2020/12/31 13:54:38;;;;;;;16.92;6.82;;;;;;;;;;5103449;27;20093;-71
2020/12/31 13:57:04;;;;;;;18.98;6.03;;;;;;;;;;5112901;27;20022;-70
2020/12/31 13:59:30;;;;;;;17.05;6.78;;;;;;;;;;5109192;27;20093;-70
2020/12/31 14:01:56;;;;;;;15.57;6.90;;;;;;;;;;5113135;28;20019;-71
2020/12/31 14:04:25;;;;;;;20.23;6.30;;;;;;;;;;5113026;28;20028;-68
2020/12/31 14:06:52;;;;;;;16.45;5.80;;;;;;;;;;5091472;28;20401;-69
2020/12/31 14:09:18;;;;;;;12.20;5.72;;;;;;;;;;5103472;27;20027;-73
2020/12/31 14:11:44;;;;;;;11.75;5.72;;;;;;;;;;5107047;27;20020;-71
2020/12/31 14:14:10;;;;;;;13.73;5.53;;;;;;;;;;5111840;27;20024;-70
2020/12/31 14:16:36;;;;;;;16.02;5.78;;;;;;;;;;5129440;27;20027;-70
2020/12/31 14:19:04;;;;;;;20.40;5.82;;;;;;;;;;5103211;28;20023;-70
2020/12/31 14:21:30;;;;;;;16.98;4.80;;;;;;;;;;5110924;28;20015;-70
2020/12/31 14:23:56;;;;;;;19.48;4.70;;;;;;;;;;5130725;27;20038;-71
2020/12/31 14:26:24;;;;;;;19.52;5.22;;;;;;;;;;5104256;28;20384;-70
2020/12/31 14:28:51;;;;;;;16.63;5.28;;;;;;;;;;5126745;27;20023;-70
2020/12/31 14:31:17;;;;;;;12.18;4.82;;;;;;;;;;5099892;28;20030;-70
2020/12/31 14:33:43;;;;;;;9.27;4.20;;;;;;;;;;5098037;28;20666;-67
2020/12/31 14:36:09;;;;;;;15.10;4.40;;;;;;;;;;5107980;28;20027;-71
2020/12/31 14:38:35;;;;;;;12.45;4.10;;;;;;;;;;5107365;28;20490;-67